Time;durP1;ratioP1;P1;durP2;ratioP2;P2;SDS_P1;SDS_P2;PMS_P1;PMS_P2;Temp;Humidity;BMP_temperature;BMP_pressure;BME280_temperature;BME280_humidity;BME280_pressure;Samples;Min_cycle;Max_cycle;Signal;HPM_P1;HPM_P2
2023/04/01 00:08:12;;;;;;;12.20;10.00;;;;;;;7.91;100.00;97556.10;439182;1253;140335;-72
2023/04/01 00:18:18;;;;;;;12.80;9.90;;;;;;;7.89;100.00;97550.91;439097;1251;139530;-73
2023/04/01 00:28:24;;;;;;;15.90;12.40;;;;;;;7.89;100.00;97556.61;439194;1251;139136;-75
2023/04/01 00:38:30;;;;;;;14.00;11.60;;;;;;;7.83;100.00;97559.01;439055;1251;140216;-73
2023/04/01 00:48:40;;;;;;;15.30;12.40;;;;;;;7.72;100.00;97558.24;439157;1250;139665;-73
2023/04/01 00:58:51;;;;;;;14.20;12.00;;;;;;;7.66;100.00;97548.28;439409;1251;138897;-74
2023/04/01 01:09:17;;;;;;;15.00;13.00;;;;;;;7.61;100.00;97535.27;439132;1251;139247;-72
2023/04/01 01:19:48;;;;;;;14.60;12.90;;;;;;;7.50;100.00;97522.45;439066;1253;139784;-74
2023/04/01 01:30:35;;;;;;;14.50;12.60;;;;;;;7.46;100.00;97528.36;439517;1251;139478;-74
2023/04/01 01:40:45;;;;;;;16.40;14.60;;;;;;;7.31;100.00;97530.95;439251;1253;139328;-74
2023/04/01 01:50:51;;;;;;;15.60;13.70;;;;;;;7.12;100.00;97532.67;438972;1253;139016;-75
2023/04/01 02:01:00;;;;;;;18.30;16.00;;;;;;;7.06;100.00;97531.34;438867;1253;140158;-74
2023/04/01 02:11:09;;;;;;;22.20;18.00;;;;;;;6.99;100.00;97522.64;439287;1253;139794;-74
2023/04/01 02:21:16;;;;;;;21.60;17.40;;;;;;;6.84;100.00;97526.77;439043;1251;139404;-75
2023/04/01 02:31:23;;;;;;;24.30;18.90;;;;;;;6.92;100.00;97528.11;440323;1251;139194;-75
2023/04/01 02:41:29;;;;;;;18.90;16.30;;;;;;;6.98;100.00;97531.59;438854;1251;139032;-75
2023/04/01 02:51:36;;;;;;;18.70;16.70;;;;;;;6.97;100.00;97535.80;439023;1253;139367;-74
2023/04/01 03:01:41;;;;;;;15.60;13.60;;;;;;;6.96;100.00;97539.73;438970;1250;139339;-74
2023/04/01 03:11:47;;;;;;;15.40;12.30;;;;;;;6.99;100.00;97541.38;439164;1253;138910;-73
2023/04/01 03:21:53;;;;;;;14.00;12.20;;;;;;;6.98;100.00;97543.98;439346;1251;138775;-73
2023/04/01 03:31:59;;;;;;;14.80;12.20;;;;;;;6.87;100.00;97545.35;439432;1251;139094;-75
2023/04/01 03:42:06;;;;;;;13.10;11.50;;;;;;;6.78;100.00;97549.39;442983;1253;138950;-74
2023/04/01 03:52:13;;;;;;;11.60;10.40;;;;;;;6.66;100.00;97555.41;439063;1250;138982;-75
2023/04/01 04:02:19;;;;;;;10.60;9.10;;;;;;;6.55;100.00;97567.23;438996;1251;138929;-75
2023/04/01 04:12:25;;;;;;;11.20;9.60;;;;;;;6.42;100.00;97575.02;439154;1253;139233;-73
2023/04/01 04:22:31;;;;;;;11.80;10.60;;;;;;;6.35;100.00;97573.44;439242;1253;138703;-75
2023/04/01 04:32:37;;;;;;;11.40;9.60;;;;;;;6.26;100.00;97582.88;438844;1251;140620;-74
2023/04/01 04:42:43;;;;;;;11.00;9.90;;;;;;;6.26;100.00;97579.23;439262;1251;140838;-75
2023/04/01 04:52:48;;;;;;;12.80;9.20;;;;;;;6.21;100.00;97580.30;439640;1251;141114;-74
2023/04/01 05:02:54;;;;;;;11.80;9.70;;;;;;;6.29;100.00;97579.53;439288;1251;139391;-75
2023/04/01 05:13:01;;;;;;;9.90;8.60;;;;;;;6.58;100.00;97577.26;439125;1251;139239;-75
2023/04/01 05:23:06;;;;;;;9.60;8.30;;;;;;;6.79;100.00;97580.81;439319;1253;138403;-74
2023/04/01 05:33:14;;;;;;;8.50;7.70;;;;;;;7.40;100.00;97579.68;439431;1250;138854;-75
2023/04/01 05:43:18;;;;;;;;;;;;;;;9.76;100.00;97574.17;439511;1250;139313;-75
2023/04/01 05:53:24;;;;;;;9.70;7.50;;;;;;;9.07;99.97;97582.52;439574;1253;125271;-75
2023/04/01 06:03:30;;;;;;;8.10;6.80;;;;;;;8.40;99.99;97583.13;439287;1253;140293;-73
2023/04/01 06:13:54;;;;;;;9.50;7.60;;;;;;;8.38;100.00;97576.33;439225;1250;138535;-75
2023/04/01 06:24:12;;;;;;;7.90;7.20;;;;;;;8.59;100.00;97583.41;439495;1254;138701;-74
2023/04/01 06:34:41;;;;;;;9.20;7.70;;;;;;;8.62;100.00;97588.35;439636;1254;139949;-74
2023/04/01 06:45:00;;;;;;;11.60;7.50;;;;;;;8.89;100.00;97589.13;439322;1253;139638;-77
2023/04/01 06:55:21;;;;;;;9.00;7.00;;;;;;;9.41;99.91;97585.96;439641;1254;139283;-75
2023/04/01 07:05:32;;;;;;;9.00;6.70;;;;;;;9.47;99.29;97592.88;439562;1256;138870;-77
2023/04/01 07:15:42;;;;;;;8.10;7.30;;;;;;;9.39;98.75;97599.06;439972;1253;140296;-74
2023/04/01 07:25:52;;;;;;;7.70;6.70;;;;;;;9.32;98.55;97598.76;439605;1251;138648;-76
2023/04/01 07:36:04;;;;;;;7.90;7.00;;;;;;;9.42;98.51;97598.98;439489;1251;141395;-76
2023/04/01 07:46:22;;;;;;;8.20;7.40;;;;;;;9.44;98.28;97602.29;439707;1254;138402;-76
2023/04/01 07:56:37;;;;;;;10.20;6.50;;;;;;;9.67;98.16;97606.45;439893;1251;138862;-76
2023/04/01 08:06:52;;;;;;;6.00;5.30;;;;;;;10.22;98.03;97606.82;440212;1253;140060;-76
2023/04/01 08:17:03;;;;;;;6.20;5.10;;;;;;;10.91;96.91;97609.80;440114;1253;139690;-76
2023/04/01 08:27:21;;;;;;;5.90;5.10;;;;;;;11.10;94.88;97611.61;440079;1251;139336;-76
2023/04/01 08:37:31;;;;;;;8.60;7.70;;;;;;;10.57;95.13;97618.58;440026;1252;139203;-75
2023/04/01 08:47:55;;;;;;;8.90;7.80;;;;;;;10.18;96.19;97623.79;439531;1253;140228;-76
2023/04/01 08:58:29;;;;;;;8.80;8.00;;;;;;;10.16;97.77;97621.53;439633;1251;140304;-75
2023/04/01 09:08:50;;;;;;;8.80;8.10;;;;;;;10.56;97.92;97622.05;439780;1251;139486;-74
2023/04/01 09:19:18;;;;;;;14.60;10.70;;;;;;;10.49;97.64;97625.11;439474;1251;139865;-75
2023/04/01 09:29:42;;;;;;;9.50;8.60;;;;;;;9.86;97.72;97622.86;439200;1251;138966;-75
2023/04/01 09:40:02;;;;;;;9.30;8.00;;;;;;;9.67;99.09;97627.75;439449;1251;138419;-75
2023/04/01 09:50:29;;;;;;;5.80;5.30;;;;;;;9.81;99.66;97630.50;439700;1251;138430;-75
2023/04/01 10:01:03;;;;;;;7.20;6.60;;;;;;;10.81;99.80;97627.27;439740;1251;138515;-75
2023/04/01 10:11:24;;;;;;;4.90;4.30;;;;;;;11.82;98.15;97630.79;439726;1251;138567;-76
2023/04/01 10:22:07;;;;;;;5.10;4.60;;;;;;;12.15;96.25;97643.02;439518;1254;139021;-76
2023/04/01 10:32:49;;;;;;;5.70;5.30;;;;;;;12.73;95.42;97642.02;439292;1251;139749;-76
2023/04/01 10:43:38;;;;;;;3.70;3.40;;;;;;;13.38;92.00;97645.42;438762;1254;139982;-75
2023/04/01 10:54:02;;;;;;;3.60;2.30;;;;;;;11.72;90.82;97650.17;439043;1253;151339;-74
2023/04/01 11:04:47;;;;;;;3.60;3.20;;;;;;;11.11;92.37;97650.38;439349;1251;139492;-76
2023/04/01 11:15:32;;;;;;;4.60;4.20;;;;;;;11.02;93.37;97662.52;439702;1250;138553;-75
2023/04/01 11:26:04;;;;;;;3.60;3.30;;;;;;;10.75;93.43;97671.85;439426;1251;139028;-76
2023/04/01 11:36:26;;;;;;;2.30;2.00;;;;;;;10.09;93.61;97679.14;439168;1253;139126;-78
2023/04/01 11:46:41;;;;;;;3.20;2.90;;;;;;;10.31;94.81;97681.73;439669;1251;140125;-75
2023/04/01 11:57:06;;;;;;;2.90;2.70;;;;;;;10.69;94.43;97684.15;439696;1251;139170;-77
2023/04/01 12:07:23;;;;;;;4.20;3.50;;;;;;;11.31;95.12;97692.40;440242;1251;138665;-77
2023/04/01 12:17:42;;;;;;;3.30;3.10;;;;;;;11.79;92.90;97693.19;440174;1251;138653;-76
2023/04/01 12:28:02;;;;;;;3.00;2.60;;;;;;;11.15;92.55;97703.73;439717;1250;138726;-75
2023/04/01 12:38:21;;;;;;;3.20;2.20;;;;;;;10.60;92.42;97710.17;439260;1251;138607;-74
2023/04/01 12:49:09;;;;;;;2.70;2.50;;;;;;;10.34;93.00;97720.30;439243;1253;141641;-75
2023/04/01 12:59:32;;;;;;;3.50;3.10;;;;;;;10.54;93.43;97725.27;440021;1250;138589;-76
2023/04/01 13:09:47;;;;;;;3.60;3.20;;;;;;;10.70;93.50;97737.61;439806;1253;139185;-77
2023/04/01 13:20:03;;;;;;;3.80;3.50;;;;;;;11.07;93.53;97745.34;443876;1250;139389;-76
2023/04/01 13:30:28;;;;;;;3.60;3.20;;;;;;;10.69;92.52;97760.22;439934;1249;139233;-77
2023/04/01 13:40:45;;;;;;;7.10;4.60;;;;;;;10.33;92.98;97775.38;439361;1250;138784;-77
2023/04/01 13:51:19;;;;;;;6.20;4.40;;;;;;;10.10;93.74;97789.91;439362;1250;140775;-77
2023/04/01 14:01:35;;;;;;;6.20;5.60;;;;;;;9.86;94.71;97797.95;439483;1250;139222;-76
2023/04/01 14:11:47;;;;;;;9.10;6.60;;;;;;;9.98;95.54;97807.20;439464;1251;139412;-77
2023/04/01 14:22:06;;;;;;;6.40;5.60;;;;;;;9.92;95.54;97818.77;439519;1250;140825;-76
2023/04/01 14:32:42;;;;;;;7.10;6.40;;;;;;;9.98;95.78;97823.32;439885;1250;139181;-75
2023/04/01 14:43:10;;;;;;;7.10;6.30;;;;;;;9.77;95.69;97840.92;442083;1253;140642;-74
2023/04/01 14:53:30;;;;;;;8.20;7.30;;;;;;;9.58;96.22;97856.23;438526;1250;138752;-70
2023/04/01 15:03:41;;;;;;;10.60;9.10;;;;;;;9.25;96.82;97873.14;436752;1250;140827;-69
2023/04/01 15:14:23;;;;;;;12.00;10.70;;;;;;;8.88;97.26;97887.50;436600;1250;139033;-68
2023/04/01 15:24:42;;;;;;;14.30;12.40;;;;;;;8.48;98.11;97903.31;436544;1251;139621;-67
2023/04/01 15:35:00;;;;;;;20.30;17.00;;;;;;;8.23;98.92;97919.05;436571;1251;140945;-68
2023/04/01 15:45:18;;;;;;;28.00;20.00;;;;;;;7.97;99.42;97930.23;438316;1251;140869;-67
2023/04/01 15:55:29;;;;;;;27.60;22.90;;;;;;;7.87;99.92;97945.66;436392;1251;139761;-68
2023/04/01 16:05:43;;;;;;;28.90;22.40;;;;;;;7.58;100.00;97957.28;436646;1250;139658;-68
2023/04/01 16:16:00;;;;;;;29.30;21.50;;;;;;;7.42;100.00;97984.64;438112;1251;139217;-68
2023/04/01 16:26:14;;;;;;;23.70;19.90;;;;;;;7.27;100.00;97999.50;438395;1251;140361;-68
2023/04/01 16:36:29;;;;;;;20.80;17.10;;;;;;;7.26;100.00;98012.12;436497;1250;140251;-68
2023/04/01 16:46:38;;;;;;;18.70;15.80;;;;;;;7.01;100.00;98022.98;436997;1250;139414;-68
2023/04/01 16:56:51;;;;;;;18.10;16.00;;;;;;;6.89;100.00;98045.44;438649;1251;140212;-68
2023/04/01 17:07:07;;;;;;;16.20;14.10;;;;;;;6.82;100.00;98067.38;437369;1250;139866;-67
2023/04/01 17:17:25;;;;;;;18.50;13.50;;;;;;;6.76;100.00;98082.38;437035;1250;139596;-67
2023/04/01 17:27:44;;;;;;;23.70;19.00;;;;;;;6.70;100.00;98093.05;436959;1249;139411;-67
2023/04/01 17:38:01;;;;;;;22.30;16.30;;;;;;;6.68;100.00;98114.48;437082;1251;140706;-67
2023/04/01 17:48:16;;;;;;;22.30;17.30;;;;;;;6.61;100.00;98126.42;437560;1250;139171;-66
2023/04/01 17:58:29;;;;;;;27.00;20.00;;;;;;;6.54;100.00;98141.87;437454;1251;139964;-67
2023/04/01 18:08:51;;;;;;;24.80;20.50;;;;;;;6.44;100.00;98161.52;436843;1251;139950;-67
2023/04/01 18:19:03;;;;;;;30.50;20.60;;;;;;;6.40;100.00;98175.33;436794;1254;139758;-67
2023/04/01 18:29:24;;;;;;;23.80;18.90;;;;;;;6.34;100.00;98184.97;436746;1250;139833;-67
2023/04/01 18:39:38;;;;;;;31.30;20.90;;;;;;;6.29;100.00;98200.02;436564;1251;140338;-68
2023/04/01 18:49:53;;;;;;;24.10;18.00;;;;;;;6.23;100.00;98219.60;436517;1253;140154;-66
2023/04/01 19:00:05;;;;;;;27.70;19.70;;;;;;;6.15;100.00;98234.88;436858;1251;140710;-67
2023/04/01 19:10:20;;;;;;;29.00;21.00;;;;;;;6.11;100.00;98243.65;436628;1251;138937;-67
2023/04/01 19:20:32;;;;;;;21.30;17.60;;;;;;;6.12;100.00;98254.52;443227;1250;139721;-67
2023/04/01 19:30:50;;;;;;;21.30;18.30;;;;;;;6.07;100.00;98264.60;437144;1251;139831;-66
2023/04/01 19:41:05;;;;;;;19.60;16.00;;;;;;;6.02;100.00;98281.07;437066;1251;139984;-67
2023/04/01 19:51:16;;;;;;;24.60;18.40;;;;;;;5.96;100.00;98297.92;436910;1251;139302;-67
2023/04/01 20:01:28;;;;;;;28.80;23.20;;;;;;;5.96;100.00;98307.50;436833;1251;140531;-66
2023/04/01 20:11:56;;;;;;;20.60;18.10;;;;;;;5.98;100.00;98316.60;437087;1253;141958;-67
2023/04/01 20:22:06;;;;;;;29.90;24.60;;;;;;;5.87;100.00;98325.80;437185;1250;140448;-66
2023/04/01 20:32:26;;;;;;;23.80;20.20;;;;;;;5.82;100.00;98339.64;437175;1251;141934;-67
2023/04/01 20:42:52;;;;;;;30.70;23.90;;;;;;;5.71;100.00;98343.31;436607;1251;140231;-66
2023/04/01 20:53:06;;;;;;;22.20;18.40;;;;;;;5.56;100.00;98352.93;437179;1250;139355;-67
2023/04/01 21:03:25;;;;;;;18.70;14.40;;;;;;;5.43;100.00;98363.47;437488;1253;141677;-66
2023/04/01 21:13:47;;;;;;;16.80;12.70;;;;;;;5.32;100.00;98370.73;436868;1253;139843;-68
2023/04/01 21:24:05;;;;;;;21.10;17.10;;;;;;;5.23;100.00;98388.15;437771;1251;139834;-66
2023/04/01 21:34:36;;;;;;;23.00;17.00;;;;;;;5.22;100.00;98395.29;437395;1250;140898;-67
2023/04/01 21:44:51;;;;;;;14.50;12.80;;;;;;;5.08;100.00;98405.52;437524;1250;139768;-67
2023/04/01 21:55:25;;;;;;;12.10;10.70;;;;;;;4.92;100.00;98416.16;437424;1253;140327;-67
2023/04/01 22:05:36;;;;;;;14.30;12.90;;;;;;;4.78;100.00;98427.02;437250;1253;138899;-66
2023/04/01 22:16:01;;;;;;;13.70;12.10;;;;;;;4.68;100.00;98429.71;436584;1251;139552;-66
2023/04/01 22:26:16;;;;;;;12.30;11.00;;;;;;;4.54;100.00;98436.55;437320;1251;139806;-67
2023/04/01 22:36:32;;;;;;;12.40;10.40;;;;;;;4.40;100.00;98440.98;436866;1250;139853;-67
2023/04/01 22:46:54;;;;;;;10.30;9.30;;;;;;;4.38;100.00;98453.63;436398;1253;327695;-67
2023/04/01 22:57:04;;;;;;;11.50;10.30;;;;;;;4.26;100.00;98464.82;437469;1253;139148;-67
2023/04/01 23:07:46;;;;;;;10.20;8.80;;;;;;;4.08;100.00;98478.63;437089;1253;139342;-67
2023/04/01 23:18:04;;;;;;;11.50;9.40;;;;;;;3.88;100.00;98491.33;436650;1251;139208;-67
2023/04/01 23:28:37;;;;;;;10.50;9.40;;;;;;;3.69;100.00;98513.10;436681;1253;140139;-66
2023/04/01 23:38:48;;;;;;;8.70;7.80;;;;;;;3.59;100.00;98521.39;436241;1253;139373;-66
2023/04/01 23:48:55;;;;;;;10.00;8.90;;;;;;;3.48;100.00;98520.55;436294;1253;140561;-67
2023/04/01 23:59:02;;;;;;;8.80;7.80;;;;;;;3.40;100.00;98530.14;436539;1251;140347;-66
